sensor_id;sensor_type;location;lat;lon;timestamp;P1;durP1;ratioP1;P2;durP2;ratioP2
38111;SDS011;64011;56.312;44.048;2023-12-20T00:00:23;14.25;;;5.28;;
38111;SDS011;64011;56.312;44.048;2023-12-20T00:02:24;16.05;;;5.75;;
38111;SDS011;64011;56.312;44.048;2023-12-20T00:04:24;15.80;;;4.85;;
38111;SDS011;64011;56.312;44.048;2023-12-20T00:06:25;15.30;;;5.55;;
38111;SDS011;64011;56.312;44.048;2023-12-20T00:08:26;12.60;;;4.50;;
38111;SDS011;64011;56.312;44.048;2023-12-20T00:10:27;12.43;;;4.82;;
38111;SDS011;64011;56.312;44.048;2023-12-20T00:12:28;15.75;;;5.65;;
38111;SDS011;64011;56.312;44.048;2023-12-20T00:14:30;16.20;;;5.82;;
38111;SDS011;64011;56.312;44.048;2023-12-20T00:16:31;12.50;;;4.35;;
38111;SDS011;64011;56.312;44.048;2023-12-20T00:18:32;13.10;;;4.95;;
38111;SDS011;64011;56.312;44.048;2023-12-20T00:20:33;13.05;;;4.80;;
38111;SDS011;64011;56.312;44.048;2023-12-20T00:22:34;12.40;;;4.70;;
38111;SDS011;64011;56.312;44.048;2023-12-20T00:24:34;13.30;;;5.20;;
38111;SDS011;64011;56.312;44.048;2023-12-20T00:26:35;14.40;;;5.03;;
38111;SDS011;64011;56.312;44.048;2023-12-20T00:28:36;15.57;;;5.72;;
38111;SDS011;64011;56.312;44.048;2023-12-20T00:30:39;13.80;;;4.75;;
38111;SDS011;64011;56.312;44.048;2023-12-20T00:32:39;14.90;;;5.70;;
38111;SDS011;64011;56.312;44.048;2023-12-20T00:34:40;15.50;;;5.35;;
38111;SDS011;64011;56.312;44.048;2023-12-20T00:36:41;16.35;;;5.82;;
38111;SDS011;64011;56.312;44.048;2023-12-20T00:38:42;14.70;;;5.20;;
38111;SDS011;64011;56.312;44.048;2023-12-20T00:40:43;13.63;;;4.90;;
38111;SDS011;64011;56.312;44.048;2023-12-20T00:42:43;15.25;;;5.40;;
38111;SDS011;64011;56.312;44.048;2023-12-20T00:44:44;12.55;;;4.95;;
38111;SDS011;64011;56.312;44.048;2023-12-20T00:46:47;15.07;;;5.35;;
38111;SDS011;64011;56.312;44.048;2023-12-20T00:48:47;12.93;;;3.88;;
38111;SDS011;64011;56.312;44.048;2023-12-20T00:50:48;14.75;;;5.32;;
38111;SDS011;64011;56.312;44.048;2023-12-20T00:52:49;12.52;;;4.28;;
38111;SDS011;64011;56.312;44.048;2023-12-20T00:54:50;14.73;;;5.20;;
38111;SDS011;64011;56.312;44.048;2023-12-20T00:56:51;13.10;;;4.85;;
38111;SDS011;64011;56.312;44.048;2023-12-20T00:58:52;14.52;;;5.22;;
38111;SDS011;64011;56.312;44.048;2023-12-20T01:00:53;12.43;;;4.55;;
38111;SDS011;64011;56.312;44.048;2023-12-20T01:02:55;16.55;;;6.35;;
38111;SDS011;64011;56.312;44.048;2023-12-20T01:04:56;16.17;;;6.10;;
38111;SDS011;64011;56.312;44.048;2023-12-20T01:06:57;14.10;;;5.43;;
38111;SDS011;64011;56.312;44.048;2023-12-20T01:08:58;15.00;;;6.00;;
38111;SDS011;64011;56.312;44.048;2023-12-20T01:10:59;14.50;;;5.60;;
38111;SDS011;64011;56.312;44.048;2023-12-20T01:13:00;14.35;;;5.47;;
38111;SDS011;64011;56.312;44.048;2023-12-20T01:15:01;14.93;;;5.63;;
38111;SDS011;64011;56.312;44.048;2023-12-20T01:17:02;15.05;;;5.35;;
38111;SDS011;64011;56.312;44.048;2023-12-20T01:19:04;14.73;;;5.75;;
38111;SDS011;64011;56.312;44.048;2023-12-20T01:21:05;15.63;;;6.50;;
38111;SDS011;64011;56.312;44.048;2023-12-20T01:23:06;15.60;;;5.88;;
38111;SDS011;64011;56.312;44.048;2023-12-20T01:25:07;16.17;;;6.43;;
38111;SDS011;64011;56.312;44.048;2023-12-20T01:27:08;16.67;;;6.43;;
38111;SDS011;64011;56.312;44.048;2023-12-20T01:29:09;16.33;;;6.28;;
38111;SDS011;64011;56.312;44.048;2023-12-20T01:31:10;16.00;;;6.30;;
38111;SDS011;64011;56.312;44.048;2023-12-20T01:33:11;17.02;;;6.93;;
38111;SDS011;64011;56.312;44.048;2023-12-20T01:35:13;14.23;;;5.45;;
38111;SDS011;64011;56.312;44.048;2023-12-20T01:37:14;16.90;;;6.90;;
38111;SDS011;64011;56.312;44.048;2023-12-20T01:39:15;18.05;;;7.07;;
38111;SDS011;64011;56.312;44.048;2023-12-20T01:41:16;16.52;;;6.53;;
38111;SDS011;64011;56.312;44.048;2023-12-20T01:43:16;16.65;;;6.55;;
38111;SDS011;64011;56.312;44.048;2023-12-20T01:45:17;16.45;;;6.50;;
38111;SDS011;64011;56.312;44.048;2023-12-20T01:47:18;18.20;;;6.90;;
38111;SDS011;64011;56.312;44.048;2023-12-20T01:49:19;13.98;;;5.97;;
38111;SDS011;64011;56.312;44.048;2023-12-20T01:51:21;14.60;;;5.03;;
38111;SDS011;64011;56.312;44.048;2023-12-20T01:53:23;17.15;;;7.30;;
38111;SDS011;64011;56.312;44.048;2023-12-20T01:55:25;17.38;;;6.43;;
38111;SDS011;64011;56.312;44.048;2023-12-20T01:57:28;19.02;;;7.80;;
38111;SDS011;64011;56.312;44.048;2023-12-20T01:59:29;17.13;;;7.43;;
38111;SDS011;64011;56.312;44.048;2023-12-20T02:01:30;17.92;;;7.40;;
38111;SDS011;64011;56.312;44.048;2023-12-20T02:03:31;16.17;;;7.00;;
38111;SDS011;64011;56.312;44.048;2023-12-20T02:05:32;14.77;;;5.53;;
38111;SDS011;64011;56.312;44.048;2023-12-20T02:07:35;16.63;;;6.72;;
38111;SDS011;64011;56.312;44.048;2023-12-20T02:09:35;15.40;;;6.35;;
38111;SDS011;64011;56.312;44.048;2023-12-20T02:11:36;16.55;;;6.75;;
38111;SDS011;64011;56.312;44.048;2023-12-20T02:13:38;17.00;;;7.50;;
38111;SDS011;64011;56.312;44.048;2023-12-20T02:15:39;17.35;;;7.70;;
38111;SDS011;64011;56.312;44.048;2023-12-20T02:17:40;17.67;;;7.05;;
38111;SDS011;64011;56.312;44.048;2023-12-20T02:19:41;17.70;;;6.80;;
38111;SDS011;64011;56.312;44.048;2023-12-20T02:21:43;16.77;;;6.40;;
38111;SDS011;64011;56.312;44.048;2023-12-20T02:23:44;17.13;;;6.22;;
38111;SDS011;64011;56.312;44.048;2023-12-20T02:25:45;15.35;;;5.90;;
38111;SDS011;64011;56.312;44.048;2023-12-20T02:27:46;14.50;;;6.00;;
38111;SDS011;64011;56.312;44.048;2023-12-20T02:29:47;14.18;;;5.28;;
38111;SDS011;64011;56.312;44.048;2023-12-20T02:31:48;16.55;;;6.55;;
38111;SDS011;64011;56.312;44.048;2023-12-20T02:33:49;15.98;;;6.63;;
38111;SDS011;64011;56.312;44.048;2023-12-20T02:35:50;14.23;;;5.57;;
38111;SDS011;64011;56.312;44.048;2023-12-20T02:37:52;15.98;;;6.18;;
38111;SDS011;64011;56.312;44.048;2023-12-20T02:39:53;14.65;;;5.00;;
38111;SDS011;64011;56.312;44.048;2023-12-20T02:41:54;13.10;;;5.05;;
38111;SDS011;64011;56.312;44.048;2023-12-20T02:43:55;14.85;;;6.00;;
38111;SDS011;64011;56.312;44.048;2023-12-20T02:45:55;15.85;;;5.63;;
38111;SDS011;64011;56.312;44.048;2023-12-20T02:47:56;15.10;;;5.90;;
38111;SDS011;64011;56.312;44.048;2023-12-20T02:49:57;12.75;;;4.43;;
38111;SDS011;64011;56.312;44.048;2023-12-20T02:51:58;13.75;;;5.10;;
38111;SDS011;64011;56.312;44.048;2023-12-20T02:54:01;14.57;;;5.70;;
38111;SDS011;64011;56.312;44.048;2023-12-20T02:56:01;15.57;;;5.85;;
38111;SDS011;64011;56.312;44.048;2023-12-20T02:58:03;14.15;;;5.32;;
38111;SDS011;64011;56.312;44.048;2023-12-20T03:00:04;13.77;;;5.20;;
38111;SDS011;64011;56.312;44.048;2023-12-20T03:02:06;15.38;;;6.43;;
38111;SDS011;64011;56.312;44.048;2023-12-20T03:04:07;14.25;;;5.40;;
38111;SDS011;64011;56.312;44.048;2023-12-20T03:06:08;14.52;;;5.80;;
38111;SDS011;64011;56.312;44.048;2023-12-20T03:08:09;15.30;;;5.72;;
38111;SDS011;64011;56.312;44.048;2023-12-20T03:10:11;14.30;;;5.50;;
38111;SDS011;64011;56.312;44.048;2023-12-20T03:12:12;17.27;;;6.43;;
38111;SDS011;64011;56.312;44.048;2023-12-20T03:14:13;14.60;;;6.15;;
38111;SDS011;64011;56.312;44.048;2023-12-20T03:16:13;15.25;;;5.93;;
38111;SDS011;64011;56.312;44.048;2023-12-20T03:18:14;15.95;;;6.25;;
38111;SDS011;64011;56.312;44.048;2023-12-20T03:20:15;14.70;;;5.40;;
38111;SDS011;64011;56.312;44.048;2023-12-20T03:22:16;16.15;;;6.07;;
38111;SDS011;64011;56.312;44.048;2023-12-20T03:24:17;14.90;;;5.68;;
38111;SDS011;64011;56.312;44.048;2023-12-20T03:26:19;14.20;;;4.95;;
38111;SDS011;64011;56.312;44.048;2023-12-20T03:28:20;16.20;;;6.13;;
38111;SDS011;64011;56.312;44.048;2023-12-20T03:30:21;15.13;;;5.53;;
38111;SDS011;64011;56.312;44.048;2023-12-20T03:32:22;16.60;;;6.25;;
38111;SDS011;64011;56.312;44.048;2023-12-20T03:34:23;15.20;;;5.82;;
38111;SDS011;64011;56.312;44.048;2023-12-20T03:36:24;14.68;;;5.47;;
38111;SDS011;64011;56.312;44.048;2023-12-20T03:38:25;16.20;;;5.70;;
38111;SDS011;64011;56.312;44.048;2023-12-20T03:40:25;14.80;;;5.93;;
38111;SDS011;64011;56.312;44.048;2023-12-20T03:42:28;13.98;;;5.38;;
38111;SDS011;64011;56.312;44.048;2023-12-20T03:44:28;15.23;;;5.65;;
38111;SDS011;64011;56.312;44.048;2023-12-20T03:46:29;14.00;;;5.40;;
38111;SDS011;64011;56.312;44.048;2023-12-20T03:48:30;18.20;;;5.95;;
38111;SDS011;64011;56.312;44.048;2023-12-20T03:50:31;16.40;;;6.18;;
38111;SDS011;64011;56.312;44.048;2023-12-20T03:52:32;15.10;;;5.90;;
38111;SDS011;64011;56.312;44.048;2023-12-20T03:54:33;16.00;;;6.75;;
38111;SDS011;64011;56.312;44.048;2023-12-20T03:56:35;16.27;;;6.45;;
38111;SDS011;64011;56.312;44.048;2023-12-20T03:58:37;15.52;;;6.13;;
38111;SDS011;64011;56.312;44.048;2023-12-20T04:00:38;15.80;;;5.80;;
38111;SDS011;64011;56.312;44.048;2023-12-20T04:02:39;15.05;;;5.75;;
38111;SDS011;64011;56.312;44.048;2023-12-20T04:04:40;16.10;;;5.78;;
38111;SDS011;64011;56.312;44.048;2023-12-20T04:06:41;14.57;;;5.57;;
38111;SDS011;64011;56.312;44.048;2023-12-20T04:08:42;15.88;;;5.82;;
38111;SDS011;64011;56.312;44.048;2023-12-20T04:10:43;15.05;;;6.15;;
38111;SDS011;64011;56.312;44.048;2023-12-20T04:12:44;15.85;;;6.15;;
38111;SDS011;64011;56.312;44.048;2023-12-20T04:14:46;16.90;;;6.60;;
38111;SDS011;64011;56.312;44.048;2023-12-20T04:16:47;18.45;;;7.55;;
38111;SDS011;64011;56.312;44.048;2023-12-20T04:18:48;18.15;;;8.40;;
38111;SDS011;64011;56.312;44.048;2023-12-20T04:20:48;20.00;;;9.10;;
38111;SDS011;64011;56.312;44.048;2023-12-20T04:22:49;19.65;;;9.13;;
38111;SDS011;64011;56.312;44.048;2023-12-20T04:24:50;19.63;;;9.30;;
38111;SDS011;64011;56.312;44.048;2023-12-20T04:26:51;19.55;;;9.27;;
38111;SDS011;64011;56.312;44.048;2023-12-20T04:28:52;17.60;;;7.85;;
38111;SDS011;64011;56.312;44.048;2023-12-20T04:30:54;19.00;;;8.88;;
38111;SDS011;64011;56.312;44.048;2023-12-20T04:32:55;19.67;;;8.23;;
38111;SDS011;64011;56.312;44.048;2023-12-20T04:34:56;19.77;;;8.70;;
38111;SDS011;64011;56.312;44.048;2023-12-20T04:36:57;19.80;;;8.50;;
38111;SDS011;64011;56.312;44.048;2023-12-20T04:38:57;19.02;;;8.02;;
38111;SDS011;64011;56.312;44.048;2023-12-20T04:40:58;18.42;;;7.90;;
38111;SDS011;64011;56.312;44.048;2023-12-20T04:42:59;18.73;;;7.35;;
38111;SDS011;64011;56.312;44.048;2023-12-20T04:45:00;17.15;;;6.82;;
38111;SDS011;64011;56.312;44.048;2023-12-20T04:47:02;16.13;;;6.53;;
38111;SDS011;64011;56.312;44.048;2023-12-20T04:49:03;15.75;;;6.28;;
38111;SDS011;64011;56.312;44.048;2023-12-20T04:51:04;14.80;;;5.20;;
38111;SDS011;64011;56.312;44.048;2023-12-20T04:53:05;16.88;;;5.53;;
38111;SDS011;64011;56.312;44.048;2023-12-20T04:55:06;14.73;;;4.55;;
38111;SDS011;64011;56.312;44.048;2023-12-20T04:57:07;12.98;;;4.82;;
38111;SDS011;64011;56.312;44.048;2023-12-20T04:59:08;12.63;;;4.57;;
38111;SDS011;64011;56.312;44.048;2023-12-20T05:01:09;14.57;;;5.10;;
38111;SDS011;64011;56.312;44.048;2023-12-20T05:03:11;17.27;;;6.35;;
38111;SDS011;64011;56.312;44.048;2023-12-20T05:05:12;16.73;;;6.55;;
38111;SDS011;64011;56.312;44.048;2023-12-20T05:07:13;20.30;;;7.88;;
38111;SDS011;64011;56.312;44.048;2023-12-20T05:09:14;19.42;;;8.40;;
38111;SDS011;64011;56.312;44.048;2023-12-20T05:11:14;18.00;;;7.60;;
38111;SDS011;64011;56.312;44.048;2023-12-20T05:13:15;19.60;;;8.63;;
38111;SDS011;64011;56.312;44.048;2023-12-20T05:15:16;20.67;;;8.70;;
38111;SDS011;64011;56.312;44.048;2023-12-20T05:17:17;20.58;;;9.35;;
38111;SDS011;64011;56.312;44.048;2023-12-20T05:19:19;21.58;;;8.65;;
38111;SDS011;64011;56.312;44.048;2023-12-20T05:21:20;20.30;;;9.43;;
38111;SDS011;64011;56.312;44.048;2023-12-20T05:23:21;20.25;;;8.70;;
38111;SDS011;64011;56.312;44.048;2023-12-20T05:25:22;19.63;;;8.80;;
38111;SDS011;64011;56.312;44.048;2023-12-20T05:27:23;19.08;;;8.43;;
38111;SDS011;64011;56.312;44.048;2023-12-20T05:29:24;22.85;;;10.77;;
38111;SDS011;64011;56.312;44.048;2023-12-20T05:31:25;21.70;;;10.50;;
38111;SDS011;64011;56.312;44.048;2023-12-20T05:33:25;18.40;;;7.45;;
38111;SDS011;64011;56.312;44.048;2023-12-20T05:35:28;19.00;;;8.02;;
38111;SDS011;64011;56.312;44.048;2023-12-20T05:37:28;17.98;;;8.20;;
38111;SDS011;64011;56.312;44.048;2023-12-20T05:39:30;19.70;;;9.07;;
38111;SDS011;64011;56.312;44.048;2023-12-20T05:41:30;18.70;;;7.20;;
38111;SDS011;64011;56.312;44.048;2023-12-20T05:43:31;17.77;;;8.18;;
38111;SDS011;64011;56.312;44.048;2023-12-20T05:45:32;21.35;;;9.32;;
38111;SDS011;64011;56.312;44.048;2023-12-20T05:47:33;20.58;;;8.50;;
38111;SDS011;64011;56.312;44.048;2023-12-20T05:49:34;17.95;;;6.38;;
38111;SDS011;64011;56.312;44.048;2023-12-20T05:51:36;19.23;;;7.68;;
38111;SDS011;64011;56.312;44.048;2023-12-20T05:53:37;21.65;;;8.82;;
38111;SDS011;64011;56.312;44.048;2023-12-20T05:55:38;20.52;;;8.20;;
38111;SDS011;64011;56.312;44.048;2023-12-20T05:57:38;18.25;;;6.30;;
38111;SDS011;64011;56.312;44.048;2023-12-20T05:59:40;17.52;;;6.38;;
38111;SDS011;64011;56.312;44.048;2023-12-20T06:01:41;21.88;;;7.07;;
38111;SDS011;64011;56.312;44.048;2023-12-20T06:03:42;19.63;;;7.20;;
38111;SDS011;64011;56.312;44.048;2023-12-20T06:05:43;17.30;;;7.25;;
38111;SDS011;64011;56.312;44.048;2023-12-20T06:07:45;19.67;;;7.18;;
38111;SDS011;64011;56.312;44.048;2023-12-20T06:09:46;17.90;;;6.88;;
38111;SDS011;64011;56.312;44.048;2023-12-20T06:11:47;16.38;;;6.78;;
38111;SDS011;64011;56.312;44.048;2023-12-20T06:13:48;18.45;;;7.50;;
38111;SDS011;64011;56.312;44.048;2023-12-20T06:15:49;17.92;;;7.70;;
38111;SDS011;64011;56.312;44.048;2023-12-20T06:17:50;19.15;;;6.40;;
38111;SDS011;64011;56.312;44.048;2023-12-20T06:19:50;18.42;;;7.60;;
38111;SDS011;64011;56.312;44.048;2023-12-20T06:21:51;17.27;;;6.90;;
38111;SDS011;64011;56.312;44.048;2023-12-20T06:23:53;17.27;;;6.65;;
38111;SDS011;64011;56.312;44.048;2023-12-20T06:25:54;18.58;;;7.07;;
38111;SDS011;64011;56.312;44.048;2023-12-20T06:27:55;18.63;;;6.43;;
38111;SDS011;64011;56.312;44.048;2023-12-20T06:29:56;16.30;;;5.93;;
38111;SDS011;64011;56.312;44.048;2023-12-20T06:31:57;15.95;;;5.88;;
38111;SDS011;64011;56.312;44.048;2023-12-20T06:33:57;14.57;;;5.45;;
38111;SDS011;64011;56.312;44.048;2023-12-20T06:35:58;15.35;;;5.72;;
38111;SDS011;64011;56.312;44.048;2023-12-20T06:37:59;15.32;;;6.30;;
38111;SDS011;64011;56.312;44.048;2023-12-20T06:40:01;16.13;;;6.05;;
38111;SDS011;64011;56.312;44.048;2023-12-20T06:42:05;16.65;;;5.57;;
38111;SDS011;64011;56.312;44.048;2023-12-20T06:44:06;14.32;;;4.93;;
38111;SDS011;64011;56.312;44.048;2023-12-20T06:46:07;14.77;;;5.07;;
38111;SDS011;64011;56.312;44.048;2023-12-20T06:48:07;12.88;;;5.07;;
38111;SDS011;64011;56.312;44.048;2023-12-20T06:50:08;14.20;;;5.38;;
38111;SDS011;64011;56.312;44.048;2023-12-20T06:52:09;16.65;;;6.68;;
38111;SDS011;64011;56.312;44.048;2023-12-20T06:54:11;11.90;;;4.63;;
38111;SDS011;64011;56.312;44.048;2023-12-20T06:56:14;16.08;;;6.38;;
38111;SDS011;64011;56.312;44.048;2023-12-20T06:58:14;16.88;;;6.43;;
38111;SDS011;64011;56.312;44.048;2023-12-20T07:00:16;16.98;;;7.63;;
38111;SDS011;64011;56.312;44.048;2023-12-20T07:02:18;16.67;;;7.40;;
38111;SDS011;64011;56.312;44.048;2023-12-20T07:04:19;16.25;;;6.55;;
38111;SDS011;64011;56.312;44.048;2023-12-20T07:06:20;16.60;;;6.00;;
38111;SDS011;64011;56.312;44.048;2023-12-20T07:08:21;17.90;;;6.88;;
38111;SDS011;64011;56.312;44.048;2023-12-20T07:10:22;14.80;;;5.13;;
38111;SDS011;64011;56.312;44.048;2023-12-20T07:12:24;14.25;;;5.50;;
38111;SDS011;64011;56.312;44.048;2023-12-20T07:14:25;15.48;;;5.50;;
38111;SDS011;64011;56.312;44.048;2023-12-20T07:16:26;16.42;;;5.50;;
38111;SDS011;64011;56.312;44.048;2023-12-20T07:18:27;16.33;;;5.72;;
38111;SDS011;64011;56.312;44.048;2023-12-20T07:20:28;16.67;;;5.72;;
38111;SDS011;64011;56.312;44.048;2023-12-20T07:22:28;14.18;;;4.78;;
38111;SDS011;64011;56.312;44.048;2023-12-20T07:24:29;15.07;;;5.45;;
38111;SDS011;64011;56.312;44.048;2023-12-20T07:26:30;14.32;;;4.95;;
38111;SDS011;64011;56.312;44.048;2023-12-20T07:28:32;15.52;;;5.35;;
38111;SDS011;64011;56.312;44.048;2023-12-20T07:30:33;14.57;;;5.22;;
38111;SDS011;64011;56.312;44.048;2023-12-20T07:32:34;15.57;;;5.65;;
38111;SDS011;64011;56.312;44.048;2023-12-20T07:34:35;11.82;;;5.18;;
38111;SDS011;64011;56.312;44.048;2023-12-20T07:36:36;14.98;;;5.72;;
38111;SDS011;64011;56.312;44.048;2023-12-20T07:38:37;14.77;;;5.90;;
38111;SDS011;64011;56.312;44.048;2023-12-20T07:40:38;16.42;;;5.90;;
38111;SDS011;64011;56.312;44.048;2023-12-20T07:42:39;20.20;;;6.90;;
38111;SDS011;64011;56.312;44.048;2023-12-20T07:44:41;15.35;;;5.53;;
38111;SDS011;64011;56.312;44.048;2023-12-20T07:46:42;14.80;;;6.10;;
38111;SDS011;64011;56.312;44.048;2023-12-20T07:48:43;17.20;;;7.55;;
38111;SDS011;64011;56.312;44.048;2023-12-20T07:50:44;15.23;;;5.95;;
38111;SDS011;64011;56.312;44.048;2023-12-20T07:52:45;17.30;;;5.75;;
38111;SDS011;64011;56.312;44.048;2023-12-20T07:54:46;13.60;;;4.97;;
38111;SDS011;64011;56.312;44.048;2023-12-20T07:56:47;16.85;;;5.82;;
38111;SDS011;64011;56.312;44.048;2023-12-20T07:58:49;13.00;;;4.53;;
38111;SDS011;64011;56.312;44.048;2023-12-20T08:00:51;15.10;;;5.47;;
38111;SDS011;64011;56.312;44.048;2023-12-20T08:02:52;10.55;;;3.83;;
38111;SDS011;64011;56.312;44.048;2023-12-20T08:04:53;12.38;;;4.72;;
38111;SDS011;64011;56.312;44.048;2023-12-20T08:06:53;10.10;;;3.78;;
38111;SDS011;64011;56.312;44.048;2023-12-20T08:08:54;11.20;;;3.50;;
38111;SDS011;64011;56.312;44.048;2023-12-20T08:10:55;12.50;;;4.00;;
38111;SDS011;64011;56.312;44.048;2023-12-20T08:12:56;10.07;;;3.55;;
38111;SDS011;64011;56.312;44.048;2023-12-20T08:14:57;11.18;;;3.83;;
38111;SDS011;64011;56.312;44.048;2023-12-20T08:16:59;11.35;;;3.78;;
38111;SDS011;64011;56.312;44.048;2023-12-20T08:19:00;9.38;;;3.40;;
38111;SDS011;64011;56.312;44.048;2023-12-20T08:21:01;12.57;;;4.20;;
38111;SDS011;64011;56.312;44.048;2023-12-20T08:23:02;13.05;;;4.10;;
38111;SDS011;64011;56.312;44.048;2023-12-20T08:25:03;10.70;;;3.95;;
38111;SDS011;64011;56.312;44.048;2023-12-20T08:27:05;12.15;;;4.03;;
38111;SDS011;64011;56.312;44.048;2023-12-20T08:29:06;12.65;;;4.18;;
38111;SDS011;64011;56.312;44.048;2023-12-20T08:31:07;9.70;;;2.83;;
38111;SDS011;64011;56.312;44.048;2023-12-20T08:33:15;10.32;;;3.67;;
38111;SDS011;64011;56.312;44.048;2023-12-20T08:35:16;11.82;;;4.15;;
38111;SDS011;64011;56.312;44.048;2023-12-20T08:37:17;9.52;;;3.58;;
38111;SDS011;64011;56.312;44.048;2023-12-20T08:39:18;11.30;;;3.58;;
38111;SDS011;64011;56.312;44.048;2023-12-20T08:41:19;10.32;;;3.10;;
38111;SDS011;64011;56.312;44.048;2023-12-20T08:43:19;9.70;;;3.53;;
38111;SDS011;64011;56.312;44.048;2023-12-20T08:45:20;7.20;;;3.13;;
38111;SDS011;64011;56.312;44.048;2023-12-20T08:47:21;10.40;;;3.00;;
38111;SDS011;64011;56.312;44.048;2023-12-20T08:49:23;10.52;;;3.80;;
38111;SDS011;64011;56.312;44.048;2023-12-20T08:51:24;10.15;;;3.65;;
38111;SDS011;64011;56.312;44.048;2023-12-20T08:53:25;14.63;;;3.72;;
38111;SDS011;64011;56.312;44.048;2023-12-20T08:55:26;7.45;;;2.80;;
38111;SDS011;64011;56.312;44.048;2023-12-20T08:57:27;10.18;;;3.65;;
38111;SDS011;64011;56.312;44.048;2023-12-20T08:59:28;9.52;;;3.53;;
38111;SDS011;64011;56.312;44.048;2023-12-20T09:01:28;13.30;;;4.45;;
38111;SDS011;64011;56.312;44.048;2023-12-20T09:03:29;11.73;;;3.90;;
38111;SDS011;64011;56.312;44.048;2023-12-20T09:05:31;13.48;;;3.97;;
38111;SDS011;64011;56.312;44.048;2023-12-20T09:07:32;8.88;;;2.85;;
38111;SDS011;64011;56.312;44.048;2023-12-20T09:09:33;10.32;;;3.25;;
38111;SDS011;64011;56.312;44.048;2023-12-20T09:11:34;10.63;;;3.60;;
38111;SDS011;64011;56.312;44.048;2023-12-20T09:13:35;8.13;;;3.50;;
38111;SDS011;64011;56.312;44.048;2023-12-20T09:15:36;13.52;;;4.38;;
38111;SDS011;64011;56.312;44.048;2023-12-20T09:17:37;12.80;;;4.50;;
38111;SDS011;64011;56.312;44.048;2023-12-20T09:19:37;9.95;;;3.50;;
38111;SDS011;64011;56.312;44.048;2023-12-20T09:21:40;11.23;;;3.70;;
38111;SDS011;64011;56.312;44.048;2023-12-20T09:23:41;12.52;;;4.57;;
38111;SDS011;64011;56.312;44.048;2023-12-20T09:25:42;13.13;;;3.67;;
38111;SDS011;64011;56.312;44.048;2023-12-20T09:27:42;11.82;;;3.80;;
38111;SDS011;64011;56.312;44.048;2023-12-20T09:29:43;11.43;;;3.33;;
38111;SDS011;64011;56.312;44.048;2023-12-20T09:31:44;12.75;;;3.78;;
38111;SDS011;64011;56.312;44.048;2023-12-20T09:33:45;11.90;;;4.03;;
38111;SDS011;64011;56.312;44.048;2023-12-20T09:35:46;10.52;;;3.70;;
38111;SDS011;64011;56.312;44.048;2023-12-20T09:37:48;11.75;;;4.03;;
38111;SDS011;64011;56.312;44.048;2023-12-20T09:39:49;12.32;;;3.63;;
38111;SDS011;64011;56.312;44.048;2023-12-20T09:41:54;11.73;;;3.97;;
38111;SDS011;64011;56.312;44.048;2023-12-20T09:44:00;12.07;;;3.95;;
38111;SDS011;64011;56.312;44.048;2023-12-20T09:46:04;13.02;;;3.95;;
38111;SDS011;64011;56.312;44.048;2023-12-20T09:48:06;12.57;;;4.00;;
38111;SDS011;64011;56.312;44.048;2023-12-20T09:50:08;12.30;;;4.13;;
38111;SDS011;64011;56.312;44.048;2023-12-20T09:52:09;8.88;;;2.78;;
38111;SDS011;64011;56.312;44.048;2023-12-20T09:54:13;11.70;;;3.78;;
38111;SDS011;64011;56.312;44.048;2023-12-20T09:56:14;13.68;;;4.50;;
38111;SDS011;64011;56.312;44.048;2023-12-20T09:58:15;12.63;;;3.95;;
38111;SDS011;64011;56.312;44.048;2023-12-20T10:00:16;12.18;;;4.10;;
38111;SDS011;64011;56.312;44.048;2023-12-20T10:02:17;14.52;;;4.70;;
38111;SDS011;64011;56.312;44.048;2023-12-20T10:04:20;14.25;;;4.80;;
38111;SDS011;64011;56.312;44.048;2023-12-20T10:06:21;14.93;;;4.90;;
38111;SDS011;64011;56.312;44.048;2023-12-20T10:08:22;15.18;;;5.00;;
38111;SDS011;64011;56.312;44.048;2023-12-20T10:10:24;15.02;;;5.60;;
38111;SDS011;64011;56.312;44.048;2023-12-20T10:12:25;17.75;;;6.35;;
38111;SDS011;64011;56.312;44.048;2023-12-20T10:14:26;19.23;;;7.05;;
38111;SDS011;64011;56.312;44.048;2023-12-20T10:16:27;20.23;;;7.05;;
38111;SDS011;64011;56.312;44.048;2023-12-20T10:18:28;18.38;;;6.40;;
38111;SDS011;64011;56.312;44.048;2023-12-20T10:20:30;22.00;;;7.93;;
38111;SDS011;64011;56.312;44.048;2023-12-20T10:22:31;17.27;;;7.07;;
38111;SDS011;64011;56.312;44.048;2023-12-20T10:24:32;17.10;;;7.13;;
38111;SDS011;64011;56.312;44.048;2023-12-20T10:26:35;15.88;;;5.57;;
38111;SDS011;64011;56.312;44.048;2023-12-20T10:28:35;15.52;;;5.68;;
38111;SDS011;64011;56.312;44.048;2023-12-20T10:30:37;14.48;;;4.72;;
38111;SDS011;64011;56.312;44.048;2023-12-20T10:32:41;13.95;;;5.38;;
38111;SDS011;64011;56.312;44.048;2023-12-20T10:34:42;15.40;;;5.80;;
38111;SDS011;64011;56.312;44.048;2023-12-20T10:36:43;21.10;;;6.05;;
38111;SDS011;64011;56.312;44.048;2023-12-20T10:38:43;15.07;;;5.13;;
38111;SDS011;64011;56.312;44.048;2023-12-20T10:40:45;14.43;;;4.70;;
38111;SDS011;64011;56.312;44.048;2023-12-20T10:42:47;12.10;;;4.32;;
38111;SDS011;64011;56.312;44.048;2023-12-20T10:44:48;14.73;;;5.28;;
38111;SDS011;64011;56.312;44.048;2023-12-20T10:46:49;13.07;;;4.85;;
38111;SDS011;64011;56.312;44.048;2023-12-20T10:48:50;15.63;;;5.30;;
38111;SDS011;64011;56.312;44.048;2023-12-20T10:50:52;14.23;;;5.03;;
38111;SDS011;64011;56.312;44.048;2023-12-20T10:52:53;14.27;;;4.10;;
38111;SDS011;64011;56.312;44.048;2023-12-20T10:54:55;15.55;;;5.38;;
38111;SDS011;64011;56.312;44.048;2023-12-20T10:56:56;13.23;;;4.97;;
38111;SDS011;64011;56.312;44.048;2023-12-20T10:58:59;13.30;;;4.05;;
38111;SDS011;64011;56.312;44.048;2023-12-20T11:01:02;10.70;;;3.88;;
38111;SDS011;64011;56.312;44.048;2023-12-20T11:03:04;12.77;;;4.05;;
38111;SDS011;64011;56.312;44.048;2023-12-20T11:05:06;12.30;;;4.50;;
38111;SDS011;64011;56.312;44.048;2023-12-20T11:07:17;12.20;;;4.35;;
38111;SDS011;64011;56.312;44.048;2023-12-20T11:09:21;11.55;;;3.72;;
38111;SDS011;64011;56.312;44.048;2023-12-20T11:11:26;12.38;;;4.20;;
38111;SDS011;64011;56.312;44.048;2023-12-20T11:13:37;13.23;;;4.30;;
38111;SDS011;64011;56.312;44.048;2023-12-20T11:15:42;10.95;;;3.80;;
38111;SDS011;64011;56.312;44.048;2023-12-20T11:17:44;9.05;;;3.20;;
38111;SDS011;64011;56.312;44.048;2023-12-20T11:20:04;12.38;;;4.00;;
38111;SDS011;64011;56.312;44.048;2023-12-20T11:22:06;9.90;;;3.80;;
38111;SDS011;64011;56.312;44.048;2023-12-20T11:24:07;12.40;;;3.97;;
38111;SDS011;64011;56.312;44.048;2023-12-20T11:26:08;10.25;;;3.80;;
38111;SDS011;64011;56.312;44.048;2023-12-20T11:28:09;12.45;;;4.07;;
38111;SDS011;64011;56.312;44.048;2023-12-20T11:30:11;12.70;;;3.83;;
38111;SDS011;64011;56.312;44.048;2023-12-20T11:32:31;10.60;;;3.47;;
38111;SDS011;64011;56.312;44.048;2023-12-20T11:34:34;11.80;;;4.03;;
38111;SDS011;64011;56.312;44.048;2023-12-20T11:36:36;10.43;;;3.67;;
38111;SDS011;64011;56.312;44.048;2023-12-20T11:38:37;12.10;;;3.70;;
38111;SDS011;64011;56.312;44.048;2023-12-20T11:40:38;12.45;;;3.90;;
38111;SDS011;64011;56.312;44.048;2023-12-20T11:42:39;10.00;;;3.35;;
38111;SDS011;64011;56.312;44.048;2023-12-20T11:44:40;11.40;;;3.75;;
38111;SDS011;64011;56.312;44.048;2023-12-20T11:46:43;12.63;;;3.72;;
38111;SDS011;64011;56.312;44.048;2023-12-20T11:48:46;14.18;;;4.68;;